Huvudsida
METAR-TAF:

METAR-TAF

Flygplatser :

Don Mueang internationella flygplats

Bangkok, Thailand

latitud: 13-54-45N, longitud: 100-36-24E, höjd: 4 m

Aktuellt väderrapport

Denna rapport gjordes för 36 minuter sedan, klockan 12:30 UTC
Vind 10 kt från syd
Temperatur 33°C
Fuktighet 59%
Tryck 1004 hPa
Sikt 10 km eller mer
Få moln på en höjd av 2000 ft

METAR: VTBD 221230Z 18010KT 9999 FEW020 33/24 Q1004 NOSIG

Tid: 20:06 (13:06 UTC)

Väderprognos

Denna rapport gjordes för 2 timmar och 6 minuter sedan, klockan 11:00 UTC
Prognos gäller från 22 kl. 12 UTC till 23 kl. 18 UTC
Vind 8 kt från syd
Sikt 10 km eller mer
Få moln på en höjd av 2000 ft

TAF: VTBD 221100Z 2212/2318 19008KT 9999 FEW020

Aktuella väderrapporter och prognoser från 4000 flygplatser (METAR- och TAF-rapporter).

De tillgängliga stationerna syns som gula och röda prickar på kartan.

För musen över prickarna för att se namnen på stationerna.

Klicka sedan för att få väderrapporter och prognoser.

För att ändra kartan: Klicka på de gröna knapparna med ett svart kors på för att zooma in; den gröna knappen med ett streck på för att zooma ut; eller på de gröna pilarna för angränsande kartor.


METAR-TAF: